Terminal Aerodrome Forecast
Issued by NWS Billings, MT

Home | Current Version | Previous Version | Text Only | Print | Product List | Glossary On
Versions: 1 2 3 4 5 6 7 8 9 10 11 12 13 14 15 16
000
FTUS45 KBYZ 180528
TAFSHR
TAF
KSHR 180528Z 1806/1906 VRB03KT P6SM BKN120 WS010/34050KT
      TEMPO 1806/1810 24020G30KT
     FM181000 35015G25KT 2SM -SN BR SCT015 OVC025
     FM181400 35017G28KT 1SM -SN BR BKN015 OVC025=

USA.gov is the U.S. government's official web portal to all federal, state and local government web resources and services.